createdAt,value
2023-06-05T00:00:50.153Z,993.3
2023-06-05T00:01:51.892Z,993.3
2023-06-05T00:02:53.868Z,993.25
2023-06-05T00:03:55.640Z,993.27
2023-06-05T00:04:57.116Z,993.32
2023-06-05T00:05:58.810Z,993.31
2023-06-05T00:07:00.558Z,993.3
2023-06-05T00:08:02.279Z,993.27
2023-06-05T00:09:04.027Z,993.35
2023-06-05T00:10:05.751Z,993.33
2023-06-05T00:11:07.823Z,993.31
2023-06-05T00:12:09.208Z,993.26
2023-06-05T00:13:10.949Z,993.27
2023-06-05T00:14:12.682Z,993.26
2023-06-05T00:15:14.416Z,993.25
2023-06-05T00:16:16.197Z,993.29
2023-06-05T00:17:17.888Z,993.26
2023-06-05T00:18:19.592Z,993.24
2023-06-05T00:19:21.589Z,993.26
2023-06-05T00:20:23.078Z,993.28
2023-06-05T00:21:24.960Z,993.24
2023-06-05T00:22:26.581Z,993.26
2023-06-05T00:23:28.359Z,993.27
2023-06-05T00:24:30.191Z,993.25
2023-06-05T00:25:31.820Z,993.22
2023-06-05T00:26:33.460Z,993.26
2023-06-05T00:27:35.245Z,993.25
2023-06-05T00:28:36.938Z,993.27
2023-06-05T00:29:38.746Z,993.27
2023-06-05T00:30:40.427Z,993.27
2023-06-05T00:31:42.207Z,993.28
2023-06-05T00:32:43.915Z,993.29
2023-06-05T00:33:45.614Z,993.29
2023-06-05T00:34:47.361Z,993.24
2023-06-05T00:35:49.054Z,993.27
2023-06-05T00:36:50.864Z,993.23
2023-06-05T00:37:52.552Z,993.25
2023-06-05T00:38:54.292Z,993.28
2023-06-05T00:39:56.006Z,993.27
2023-06-05T00:40:57.727Z,993.25
2023-06-05T00:41:59.478Z,993.27
2023-06-05T00:43:01.212Z,993.26
2023-06-05T00:44:03.006Z,993.24
2023-06-05T00:45:04.709Z,993.22
2023-06-05T00:46:06.467Z,993.26
2023-06-05T00:47:08.135Z,993.23
2023-06-05T00:48:09.874Z,993.23
2023-06-05T00:49:11.600Z,993.16
2023-06-05T00:50:13.339Z,993.23
2023-06-05T00:51:15.079Z,993.21
2023-06-05T00:52:16.801Z,993.21
2023-06-05T00:53:18.583Z,993.2
2023-06-05T00:54:20.326Z,993.2
2023-06-05T00:55:22.028Z,993.23
2023-06-05T00:56:23.759Z,993.19
2023-06-05T00:57:25.577Z,993.21
2023-06-05T00:58:27.223Z,993.2
2023-06-05T00:59:28.962Z,993.18
2023-06-05T01:00:30.691Z,993.19
2023-06-05T01:01:32.442Z,993.17
2023-06-05T01:02:34.247Z,993.18
2023-06-05T01:03:35.907Z,993.2
2023-06-05T01:04:37.626Z,993.21
2023-06-05T01:05:39.337Z,993.17
2023-06-05T01:06:41.083Z,993.22
2023-06-05T01:07:42.901Z,993.07
2023-06-05T01:08:44.411Z,993.16
2023-06-05T01:09:46.143Z,993.15
2023-06-05T01:10:47.873Z,993.21
2023-06-05T01:11:49.621Z,993.14
2023-06-05T01:12:51.341Z,993.16
2023-06-05T01:13:53.084Z,993.18
2023-06-05T01:14:54.806Z,993.16
2023-06-05T01:15:56.544Z,993.15
2023-06-05T01:16:58.397Z,993.2
2023-06-05T01:18:00.300Z,993.16
2023-06-05T01:19:01.718Z,993.18
2023-06-05T01:20:03.473Z,993.22
2023-06-05T01:21:05.210Z,993.21
2023-06-05T01:22:06.958Z,993.19
2023-06-05T01:23:08.681Z,993.18
2023-06-05T01:24:10.439Z,993.13
2023-06-05T01:25:12.194Z,993.14
2023-06-05T01:26:13.894Z,993.15
2023-06-05T01:27:15.623Z,993.11
2023-06-05T01:28:17.348Z,993.14
2023-06-05T01:29:19.079Z,993.14
2023-06-05T01:30:20.801Z,993.13
2023-06-05T01:31:22.635Z,993.06
2023-06-05T01:32:24.310Z,993.11
2023-06-05T01:33:26.024Z,993.11
2023-06-05T01:34:27.747Z,993.12
2023-06-05T01:35:29.531Z,993.11
2023-06-05T01:36:31.205Z,993.14
2023-06-05T01:37:32.950Z,993.09
2023-06-05T01:38:34.684Z,993.11
2023-06-05T01:39:36.434Z,993.11
2023-06-05T01:40:38.161Z,993.07
2023-06-05T01:41:39.878Z,993.03
2023-06-05T01:42:41.678Z,993.08
2023-06-05T01:43:43.370Z,993.06
2023-06-05T01:44:45.097Z,993.06
2023-06-05T01:45:46.821Z,993.03
2023-06-05T01:46:48.611Z,993.08
2023-06-05T01:47:50.323Z,993.06
2023-06-05T01:48:52.032Z,993.07
2023-06-05T01:49:53.753Z,993.05
2023-06-05T01:50:55.484Z,993.02
2023-06-05T01:51:57.238Z,993.01
2023-06-05T01:52:58.966Z,993.04
2023-06-05T01:54:00.737Z,993.01
2023-06-05T01:55:02.416Z,993
2023-06-05T01:56:04.166Z,992.97
2023-06-05T01:57:05.888Z,993.05
2023-06-05T01:58:07.625Z,993.02
2023-06-05T01:59:09.350Z,993.05
2023-06-05T02:00:11.089Z,993.07
2023-06-05T02:01:12.829Z,993.02
2023-06-05T02:02:14.558Z,993.01
2023-06-05T02:03:16.422Z,993.01
2023-06-05T02:04:18.196Z,993.01
2023-06-05T02:05:19.746Z,992.95
2023-06-05T02:06:21.475Z,992.97
2023-06-05T02:07:23.219Z,992.93
2023-06-05T02:08:24.935Z,992.97
2023-06-05T02:09:26.710Z,992.96
2023-06-05T02:10:28.474Z,992.95
2023-06-05T02:11:30.162Z,992.93
2023-06-05T02:12:31.896Z,992.88
2023-06-05T02:13:33.626Z,992.94
2023-06-05T02:14:35.356Z,992.91
2023-06-05T02:15:37.088Z,992.93
2023-06-05T02:16:38.857Z,992.92
2023-06-05T02:17:40.627Z,992.93
2023-06-05T02:18:42.643Z,992.87
2023-06-05T02:19:43.992Z,992.92
2023-06-05T02:20:45.770Z,992.87
2023-06-05T02:21:47.491Z,992.96
2023-06-05T02:22:49.244Z,992.92
2023-06-05T02:23:51.049Z,992.96
2023-06-05T02:24:52.687Z,992.9
2023-06-05T02:25:54.427Z,992.85
2023-06-05T02:26:56.161Z,992.88
2023-06-05T02:27:57.907Z,992.92
2023-06-05T02:28:59.634Z,992.89
2023-06-05T02:30:01.354Z,992.86
2023-06-05T02:31:03.095Z,992.87
2023-06-05T02:32:04.906Z,992.88
2023-06-05T02:33:06.623Z,992.87
2023-06-05T02:34:08.317Z,992.87
2023-06-05T02:35:10.044Z,992.89
2023-06-05T02:36:11.817Z,992.92
2023-06-05T02:37:13.508Z,992.92
2023-06-05T02:38:15.227Z,992.89
2023-06-05T02:39:16.974Z,992.87
2023-06-05T02:40:18.773Z,992.91
2023-06-05T02:41:20.434Z,992.9
2023-06-05T02:42:22.178Z,992.89
2023-06-05T02:43:23.954Z,992.88
2023-06-05T02:44:25.672Z,992.88
2023-06-05T02:45:27.366Z,992.87
2023-06-05T02:46:29.163Z,992.88
2023-06-05T02:47:30.855Z,992.86
2023-06-05T02:48:32.564Z,992.79
2023-06-05T02:49:34.432Z,992.85
2023-06-05T02:50:36.043Z,992.9
2023-06-05T02:51:37.745Z,992.82
2023-06-05T02:52:39.611Z,992.85
2023-06-05T02:53:41.267Z,992.86
2023-06-05T02:54:42.978Z,992.87
2023-06-05T02:55:44.717Z,992.84
2023-06-05T02:56:46.436Z,992.86
2023-06-05T02:57:48.154Z,992.89
2023-06-05T02:58:49.919Z,992.88
2023-06-05T02:59:51.673Z,992.86
2023-06-05T03:00:53.403Z,992.87
2023-06-05T03:01:55.205Z,992.83
2023-06-05T03:02:57.276Z,992.82
2023-06-05T03:03:58.689Z,992.82
2023-06-05T03:05:00.363Z,992.8
2023-06-05T03:06:02.054Z,992.85
2023-06-05T03:07:03.870Z,992.82
2023-06-05T03:08:05.512Z,992.81
2023-06-05T03:09:07.246Z,992.82
2023-06-05T03:10:08.975Z,992.82
2023-06-05T03:11:10.970Z,992.8
2023-06-05T03:12:12.471Z,992.8
2023-06-05T03:13:14.173Z,992.84
2023-06-05T03:14:15.908Z,992.82
2023-06-05T03:15:17.604Z,992.8
2023-06-05T03:16:19.463Z,992.79
2023-06-05T03:17:21.161Z,992.75
2023-06-05T03:18:22.855Z,992.81
2023-06-05T03:19:24.568Z,992.82
2023-06-05T03:20:26.511Z,992.83
2023-06-05T03:21:28.061Z,992.82
2023-06-05T03:22:29.791Z,992.79
2023-06-05T03:23:31.545Z,992.82
2023-06-05T03:24:33.281Z,992.83
2023-06-05T03:25:34.969Z,992.86
2023-06-05T03:26:36.713Z,992.82
2023-06-05T03:27:38.464Z,992.82
2023-06-05T03:28:40.249Z,992.84
2023-06-05T03:29:41.944Z,992.8
2023-06-05T03:30:43.642Z,992.8
2023-06-05T03:31:45.404Z,992.81
2023-06-05T03:32:47.159Z,992.81
2023-06-05T03:33:48.997Z,992.8
2023-06-05T03:34:50.563Z,992.79
2023-06-05T03:35:52.291Z,992.81
2023-06-05T03:36:54.095Z,992.83
2023-06-05T03:37:55.801Z,992.84
2023-06-05T03:38:57.565Z,992.82
2023-06-05T03:39:59.285Z,992.81
2023-06-05T03:41:01.082Z,992.83
2023-06-05T03:42:02.708Z,992.82
2023-06-05T03:43:04.443Z,992.86
2023-06-05T03:44:06.197Z,992.87
2023-06-05T03:45:07.915Z,992.85
2023-06-05T03:46:09.668Z,992.88
2023-06-05T03:47:11.542Z,992.78
2023-06-05T03:48:12.492Z,992.84
2023-06-05T03:49:12.925Z,992.85
2023-06-05T03:50:14.610Z,992.87
2023-06-05T03:51:16.326Z,992.88
2023-06-05T03:52:18.077Z,992.87
2023-06-05T03:53:19.813Z,992.92
2023-06-05T03:54:21.516Z,992.88
2023-06-05T03:55:23.267Z,992.88
2023-06-05T03:56:24.985Z,992.87
2023-06-05T03:57:26.719Z,992.83
2023-06-05T03:58:28.447Z,992.84
2023-06-05T04:13:56.776Z,992.91
2023-06-05T04:14:59.572Z,992.95
2023-06-05T04:16:00.274Z,992.94
2023-06-05T04:17:02.001Z,992.96
2023-06-05T04:18:03.785Z,992.88
2023-06-05T04:19:05.396Z,992.97
2023-06-05T04:20:07.136Z,992.97
2023-06-05T04:21:09.108Z,992.96
2023-06-05T04:22:10.588Z,992.97
2023-06-05T04:23:22.608Z,992.99
2023-06-05T04:24:24.332Z,993
2023-06-05T04:25:26.050Z,992.97
2023-06-05T04:26:27.752Z,992.96
2023-06-05T04:27:29.828Z,992.93
2023-06-05T04:28:31.232Z,992.98
2023-06-05T04:29:32.958Z,992.92
2023-06-05T04:30:34.708Z,992.96
2023-06-05T04:31:36.505Z,992.96
2023-06-05T04:32:38.246Z,992.93
2023-06-05T04:33:39.847Z,993
2023-06-05T04:34:41.585Z,993
2023-06-05T04:35:43.283Z,992.98
2023-06-05T04:36:45.015Z,992.97
2023-06-05T04:37:46.771Z,992.98
2023-06-05T04:38:48.465Z,992.95
2023-06-05T04:39:50.223Z,992.96
2023-06-05T04:40:51.925Z,992.91
2023-06-05T04:42:03.361Z,992.96
2023-06-05T04:42:55.506Z,992.95
2023-06-05T04:43:57.138Z,992.99
2023-06-05T04:44:58.929Z,992.92
2023-06-05T04:46:00.622Z,992.96
2023-06-05T04:47:02.341Z,992.93
2023-06-05T04:48:04.149Z,992.89
2023-06-05T04:49:05.789Z,992.89
2023-06-05T04:50:07.669Z,992.94
2023-06-05T04:51:09.454Z,992.95
2023-06-05T04:52:10.998Z,992.98
2023-06-05T04:53:12.770Z,992.96
2023-06-05T04:54:14.477Z,992.94
2023-06-05T04:55:17.024Z,992.96
2023-06-05T04:56:17.917Z,992.89
2023-06-05T04:57:19.680Z,992.96
2023-06-05T04:58:21.398Z,992.95
2023-06-05T04:59:23.133Z,992.97
2023-06-05T05:00:51.742Z,992.99
2023-06-05T05:02:17.281Z,992.92
2023-06-05T05:03:26.929Z,992.94
2023-06-05T05:04:31.678Z,992.98
2023-06-05T05:05:32.877Z,992.96
2023-06-05T05:06:35.152Z,992.98
2023-06-05T05:07:36.903Z,993.03
2023-06-05T05:08:38.713Z,993
2023-06-05T05:09:40.389Z,993.04
2023-06-05T05:10:42.097Z,993.01
2023-06-05T05:11:43.826Z,993.02
2023-06-05T05:12:45.561Z,993.05
2023-06-05T05:13:47.306Z,992.99
2023-06-05T05:14:49.035Z,993.01
2023-06-05T05:15:50.858Z,992.99
2023-06-05T05:16:52.503Z,992.96
2023-06-05T05:17:54.262Z,992.98
2023-06-05T05:18:55.967Z,993.05
2023-06-05T05:19:57.702Z,993.04
2023-06-05T05:20:59.433Z,993.02
2023-06-05T05:22:01.188Z,992.99
2023-06-05T05:23:02.919Z,993.04
2023-06-05T05:24:04.711Z,993.04
2023-06-05T05:25:06.377Z,992.97
2023-06-05T05:26:08.302Z,993.07
2023-06-05T05:27:09.832Z,993.04
2023-06-05T05:28:11.569Z,993.04
2023-06-05T05:29:13.344Z,993.05
2023-06-05T05:30:15.030Z,993.07
2023-06-05T05:31:30.067Z,993.04
2023-06-05T05:32:31.712Z,993.06
2023-06-05T05:33:33.460Z,993.09
2023-06-05T05:34:35.119Z,993.03
2023-06-05T05:35:36.761Z,993.08
2023-06-05T05:36:38.480Z,993.04
2023-06-05T05:37:40.194Z,993.06
2023-06-05T05:38:41.934Z,993.08
2023-06-05T05:39:43.683Z,993.04
2023-06-05T05:40:45.423Z,993.04
2023-06-05T05:41:47.151Z,993.08
2023-06-05T05:42:48.871Z,993.06
2023-06-05T05:43:50.623Z,993.03
2023-06-05T05:44:52.342Z,993.05
2023-06-05T05:45:54.142Z,993.02
2023-06-05T05:46:55.790Z,993.06
2023-06-05T05:47:57.567Z,993.06
2023-06-05T05:48:59.268Z,993.05
2023-06-05T05:50:00.994Z,993.02
2023-06-05T05:51:02.741Z,993
2023-06-05T05:52:04.457Z,992.98
2023-06-05T05:53:41.734Z,993.08
2023-06-05T05:54:43.491Z,993.09
2023-06-05T05:55:45.230Z,993.08
2023-06-05T05:56:47.203Z,993.11
2023-06-05T05:57:48.704Z,993.12
2023-06-05T05:58:50.422Z,993.11
2023-06-05T05:59:52.153Z,993.11
2023-06-05T06:00:53.914Z,993.1
2023-06-05T06:01:55.708Z,993.13
2023-06-05T06:02:57.509Z,993.13
2023-06-05T06:03:59.167Z,993.12
2023-06-05T06:05:00.820Z,993.13
2023-06-05T06:06:02.560Z,993.06
2023-06-05T06:07:04.536Z,993.13
2023-06-05T06:08:06.059Z,993.12
2023-06-05T06:09:07.777Z,993.1
2023-06-05T06:10:09.524Z,993.09
2023-06-05T06:11:11.659Z,993.07
2023-06-05T06:12:12.957Z,993.12
2023-06-05T06:13:14.723Z,993.08
2023-06-05T06:14:16.534Z,993.12
2023-06-05T06:15:18.164Z,993.15
2023-06-05T06:16:20.113Z,993.16
2023-06-05T06:17:21.632Z,993.17
2023-06-05T06:18:23.357Z,993.17
2023-06-05T06:19:25.259Z,993.13
2023-06-05T06:20:26.826Z,993.09
2023-06-05T06:21:28.581Z,993.09
2023-06-05T06:22:30.303Z,993.11
2023-06-05T06:23:32.061Z,993.13
2023-06-05T06:24:33.815Z,993.13
2023-06-05T06:25:35.502Z,993.11
2023-06-05T06:26:37.234Z,993.11
2023-06-05T06:27:38.982Z,993.13
2023-06-05T06:28:40.709Z,993.14
2023-06-05T06:29:42.441Z,993.16
2023-06-05T06:30:44.199Z,993.13
2023-06-05T06:31:46.015Z,993.12
2023-06-05T06:32:47.673Z,993.09
2023-06-05T06:33:49.361Z,993.1
2023-06-05T06:34:51.123Z,993.08
2023-06-05T06:35:52.841Z,993.11
2023-06-05T06:36:54.571Z,993.1
2023-06-05T06:37:56.299Z,993.11
2023-06-05T06:38:58.025Z,993.12
2023-06-05T06:39:59.837Z,993.16
2023-06-05T06:41:01.566Z,993.12
2023-06-05T06:42:03.319Z,993.11
2023-06-05T06:43:04.957Z,993.15
2023-06-05T06:44:06.698Z,993.14
2023-06-05T06:45:08.496Z,993.12
2023-06-05T06:46:10.142Z,993.1
2023-06-05T06:47:11.909Z,993.09
2023-06-05T06:48:13.744Z,993.12
2023-06-05T06:49:15.447Z,993.09
2023-06-05T06:50:17.120Z,993.08
2023-06-05T06:51:18.835Z,993.1
2023-06-05T06:52:21.577Z,993.08
2023-06-05T06:53:22.285Z,993.11
2023-06-05T06:54:24.033Z,993.1
2023-06-05T06:55:25.769Z,993.1
2023-06-05T06:56:27.513Z,993.11
2023-06-05T06:57:29.226Z,993.1
2023-06-05T06:58:30.963Z,993.11
2023-06-05T06:59:32.765Z,993.11
2023-06-05T07:00:34.625Z,993.03
2023-06-05T07:01:36.196Z,993.08
2023-06-05T07:02:37.981Z,993.07
2023-06-05T07:03:39.626Z,993.04
2023-06-05T07:04:41.373Z,993
2023-06-05T07:05:43.118Z,993.04
2023-06-05T07:06:44.835Z,993.07
2023-06-05T07:07:46.568Z,993.07
2023-06-05T07:08:48.321Z,993.06
2023-06-05T07:09:50.079Z,993.1
2023-06-05T07:10:51.792Z,993.11
2023-06-05T07:11:53.504Z,993.11
2023-06-05T07:12:55.335Z,993.11
2023-06-05T07:13:57.009Z,993.14
2023-06-05T07:14:58.728Z,993.11
2023-06-05T07:16:00.519Z,993.17
2023-06-05T07:17:03.897Z,993.17
2023-06-05T07:18:04.028Z,993.13
2023-06-05T07:19:05.651Z,993.17
2023-06-05T07:20:07.441Z,993.1
2023-06-05T07:21:09.465Z,993.14
2023-06-05T07:22:10.838Z,993.1
2023-06-05T07:23:12.585Z,993.14
2023-06-05T07:24:14.365Z,993.12
2023-06-05T07:25:16.031Z,993.12
2023-06-05T07:26:17.998Z,993.09
2023-06-05T07:27:19.514Z,993.1
2023-06-05T07:28:21.270Z,993.08
2023-06-05T07:29:22.980Z,993.09
2023-06-05T07:30:24.710Z,993.08
2023-06-05T07:31:26.458Z,993.09
2023-06-05T07:32:28.204Z,993.07
2023-06-05T07:33:31.228Z,993.09
2023-06-05T07:34:31.649Z,993.06
2023-06-05T07:35:35.571Z,993.01
2023-06-05T07:36:35.102Z,993.05
2023-06-05T07:37:36.839Z,993.02
2023-06-05T07:38:38.574Z,993.07
2023-06-05T07:39:40.312Z,993
2023-06-05T07:40:42.048Z,993.02
2023-06-05T07:41:43.788Z,993.03
2023-06-05T07:42:45.768Z,993.01
2023-06-05T07:43:47.247Z,993.01
2023-06-05T07:44:48.980Z,993.03
2023-06-05T07:45:50.767Z,993.03
2023-06-05T07:46:52.483Z,993.04
2023-06-05T07:47:54.202Z,993.06
2023-06-05T07:48:55.959Z,993.09
2023-06-05T07:49:57.646Z,993.11
2023-06-05T07:50:59.393Z,993.05
2023-06-05T07:52:01.114Z,993.05
2023-06-05T07:53:02.828Z,993.1
2023-06-05T07:54:04.576Z,993.08
2023-06-05T07:55:06.307Z,993.05
2023-06-05T07:56:08.051Z,993.05
2023-06-05T07:57:09.797Z,993.03
2023-06-05T07:58:11.679Z,993.05
2023-06-05T07:59:13.266Z,993.05
2023-06-05T08:00:14.982Z,993.04
2023-06-05T08:01:16.875Z,993.03
2023-06-05T08:02:18.478Z,993.04
2023-06-05T08:03:20.430Z,993.02
2023-06-05T08:04:22.084Z,993.03
2023-06-05T08:05:23.767Z,993.06
2023-06-05T08:06:25.424Z,993.08
2023-06-05T08:07:27.166Z,993.06
2023-06-05T08:08:28.859Z,993.09
2023-06-05T08:09:30.579Z,993.08
2023-06-05T08:10:33.199Z,993.08
2023-06-05T08:11:34.081Z,993.1
2023-06-05T08:12:35.770Z,993.09
2023-06-05T08:13:37.520Z,993.09
2023-06-05T08:14:39.263Z,993.07
2023-06-05T08:15:41.183Z,993.06
2023-06-05T08:16:42.758Z,992.97
2023-06-05T08:17:44.474Z,993.06
2023-06-05T08:18:46.174Z,993.06
2023-06-05T08:19:47.922Z,992.98
2023-06-05T08:20:49.666Z,992.96
2023-06-05T08:21:51.379Z,993
2023-06-05T08:22:53.098Z,993.01
2023-06-05T08:23:55.044Z,992.99
2023-06-05T08:24:56.584Z,992.98
2023-06-05T08:25:58.309Z,992.97
2023-06-05T08:27:00.064Z,992.96
2023-06-05T08:28:01.779Z,992.93
2023-06-05T08:29:03.516Z,992.94
2023-06-05T08:30:05.474Z,992.91
2023-06-05T08:31:07.208Z,992.94
2023-06-05T08:32:08.802Z,992.94
2023-06-05T08:33:10.444Z,992.91
2023-06-05T08:34:12.172Z,992.95
2023-06-05T08:35:13.899Z,992.92
2023-06-05T08:36:15.649Z,992.92
2023-06-05T08:37:17.382Z,992.92
2023-06-05T08:38:19.107Z,992.93
2023-06-05T08:39:20.857Z,992.93
2023-06-05T08:40:22.713Z,992.9
2023-06-05T08:41:24.305Z,992.9
2023-06-05T08:42:26.035Z,992.93
2023-06-05T08:43:27.819Z,992.91
2023-06-05T08:44:29.566Z,992.89
2023-06-05T08:45:31.271Z,992.92
2023-06-05T08:46:33.075Z,992.94
2023-06-05T08:47:34.733Z,993.01
2023-06-05T08:48:36.429Z,992.96
2023-06-05T08:49:38.180Z,992.95
2023-06-05T08:50:39.894Z,992.99
2023-06-05T08:51:41.648Z,993
2023-06-05T08:52:43.388Z,992.96
2023-06-05T08:53:45.088Z,993.04
2023-06-05T08:54:46.832Z,993.04
2023-06-05T08:55:48.796Z,992.98
2023-06-05T08:57:00.530Z,992.99
2023-06-05T08:58:02.319Z,992.96
2023-06-05T08:59:04.151Z,992.98
2023-06-05T09:00:05.801Z,992.93
2023-06-05T09:01:07.947Z,992.91
2023-06-05T09:02:09.289Z,992.95
2023-06-05T09:03:11.043Z,992.92
2023-06-05T09:04:12.845Z,992.96
2023-06-05T09:05:14.485Z,992.94
2023-06-05T09:06:16.377Z,992.93
2023-06-05T09:07:18.370Z,992.92
2023-06-05T09:08:20.156Z,992.92
2023-06-05T09:09:21.408Z,992.91
2023-06-05T09:10:23.136Z,992.92
2023-06-05T09:11:25.166Z,992.9
2023-06-05T09:12:26.619Z,992.89
2023-06-05T09:13:28.354Z,992.87
2023-06-05T09:14:30.086Z,992.87
2023-06-05T09:15:31.861Z,992.82
2023-06-05T09:16:33.537Z,992.81
2023-06-05T09:17:35.781Z,992.85
2023-06-05T09:18:37.025Z,992.79
2023-06-05T09:19:38.811Z,992.8
2023-06-05T09:20:40.506Z,992.8
2023-06-05T09:21:43.967Z,992.82
2023-06-05T09:22:44.273Z,992.77
2023-06-05T09:23:45.963Z,992.75
2023-06-05T09:24:47.423Z,992.76
2023-06-05T09:25:49.172Z,992.79
2023-06-05T09:26:50.943Z,992.8
2023-06-05T09:27:52.600Z,992.74
2023-06-05T09:28:54.341Z,992.77
2023-06-05T09:29:56.078Z,992.71
2023-06-05T09:30:57.849Z,992.7
2023-06-05T09:31:59.628Z,992.67
2023-06-05T09:33:01.381Z,992.73
2023-06-05T09:34:03.217Z,992.7
2023-06-05T09:35:05.119Z,992.73
2023-06-05T09:36:06.838Z,992.7
2023-06-05T09:37:08.262Z,992.71
2023-06-05T09:38:09.942Z,992.75
2023-06-05T09:39:11.656Z,992.78
2023-06-05T09:40:13.547Z,992.77
2023-06-05T09:41:15.185Z,992.74
2023-06-05T09:42:16.919Z,992.76
2023-06-05T09:43:18.693Z,992.78
2023-06-05T09:44:20.344Z,992.7
2023-06-05T09:45:22.066Z,992.69
2023-06-05T09:46:23.884Z,992.71
2023-06-05T09:47:25.652Z,992.72
2023-06-05T09:48:27.319Z,992.68
2023-06-05T09:49:29.282Z,992.64
2023-06-05T09:50:30.956Z,992.62
2023-06-05T09:51:32.611Z,992.61
2023-06-05T09:52:34.283Z,992.68
2023-06-05T09:53:36.047Z,992.63
2023-06-05T09:54:37.696Z,992.62
2023-06-05T09:55:39.417Z,992.65
2023-06-05T09:56:41.150Z,992.66
2023-06-05T09:57:42.890Z,992.63
2023-06-05T09:58:44.726Z,992.62
2023-06-05T09:59:46.433Z,992.65
2023-06-05T10:00:48.091Z,992.6
2023-06-05T10:01:49.815Z,992.63
2023-06-05T10:02:51.564Z,992.64
2023-06-05T10:03:53.546Z,992.6
2023-06-05T10:04:55.020Z,992.59
2023-06-05T10:06:00.885Z,992.6
2023-06-05T10:06:58.472Z,992.61
2023-06-05T10:08:00.223Z,992.61
2023-06-05T10:09:01.942Z,992.58
2023-06-05T10:10:03.814Z,992.58
2023-06-05T10:11:05.424Z,992.58
2023-06-05T10:12:07.276Z,992.6
2023-06-05T10:13:08.883Z,992.63
2023-06-05T10:14:10.713Z,992.55
2023-06-05T10:15:13.800Z,992.59
2023-06-05T10:16:18.320Z,992.58
2023-06-05T10:17:15.861Z,992.56
2023-06-05T10:18:17.581Z,992.55
2023-06-05T10:19:19.360Z,992.56
2023-06-05T10:20:21.128Z,992.53
2023-06-05T10:21:22.758Z,992.55
2023-06-05T10:22:24.609Z,992.56
2023-06-05T10:23:26.488Z,992.56
2023-06-05T10:24:27.942Z,992.56
2023-06-05T10:25:31.415Z,992.61
2023-06-05T10:26:31.552Z,992.61
2023-06-05T10:27:33.139Z,992.63
2023-06-05T10:28:34.876Z,992.6
2023-06-05T10:29:36.743Z,992.6
2023-06-05T10:30:38.393Z,992.57
2023-06-05T10:31:40.191Z,992.53
2023-06-05T10:32:41.847Z,992.54
2023-06-05T10:33:43.620Z,992.54
2023-06-05T10:34:45.272Z,992.5
2023-06-05T10:35:47.020Z,992.53
2023-06-05T10:36:48.745Z,992.49
2023-06-05T10:37:50.594Z,992.53
2023-06-05T10:38:52.224Z,992.5
2023-06-05T10:39:54.057Z,992.49
2023-06-05T10:40:55.773Z,992.47
2023-06-05T10:41:57.592Z,992.52
2023-06-05T10:42:59.170Z,992.54
2023-06-05T10:44:00.893Z,992.51
2023-06-05T10:45:02.630Z,992.5
2023-06-05T10:47:06.213Z,992.45
2023-06-05T10:48:07.916Z,992.47
2023-06-05T10:49:09.931Z,992.45
2023-06-05T10:50:11.275Z,992.46
2023-06-05T10:51:13.010Z,992.45
2023-06-05T10:52:14.750Z,992.45
2023-06-05T10:53:16.580Z,992.47
2023-06-05T10:54:18.222Z,992.41
2023-06-05T10:55:20.012Z,992.44
2023-06-05T10:56:21.774Z,992.43
2023-06-05T10:57:23.402Z,992.37
2023-06-05T10:58:25.161Z,992.39
2023-06-05T10:59:26.996Z,992.41
2023-06-05T11:00:28.599Z,992.44
2023-06-05T11:01:30.402Z,992.43
2023-06-05T11:02:32.246Z,992.4
2023-06-05T11:03:33.892Z,992.43
2023-06-05T11:04:35.560Z,992.37
2023-06-05T11:05:37.289Z,992.4
2023-06-05T11:06:39.405Z,992.38
2023-06-05T11:07:40.750Z,992.39
2023-06-05T11:08:42.746Z,992.4
2023-06-05T11:09:44.388Z,992.37
2023-06-05T11:10:46.104Z,992.4
2023-06-05T11:11:47.834Z,992.34
2023-06-05T11:12:49.416Z,992.4
2023-06-05T11:13:51.293Z,992.36
2023-06-05T11:14:52.875Z,992.36
2023-06-05T11:15:54.663Z,992.33
2023-06-05T11:16:56.377Z,992.33
2023-06-05T11:17:58.206Z,992.31
2023-06-05T11:18:59.827Z,992.3
2023-06-05T11:20:01.545Z,992.3
2023-06-05T11:21:03.398Z,992.28
2023-06-05T11:22:05.037Z,992.3
2023-06-05T11:23:06.805Z,992.26
2023-06-05T11:24:08.678Z,992.23
2023-06-05T11:25:10.245Z,992.27
2023-06-05T11:26:12.081Z,992.28
2023-06-05T11:27:13.818Z,992.16
2023-06-05T11:28:15.594Z,992.22
2023-06-05T11:29:17.533Z,992.21
2023-06-05T11:30:28.065Z,992.21
2023-06-05T11:31:20.948Z,992.24
2023-06-05T11:32:22.660Z,992.19
2023-06-05T11:33:24.179Z,992.22
2023-06-05T11:34:25.847Z,992.22
2023-06-05T11:35:27.712Z,992.15
2023-06-05T11:36:29.316Z,992.17
2023-06-05T11:37:31.105Z,992.16
2023-06-05T11:38:32.844Z,992.14
2023-06-05T11:39:34.526Z,992.1
2023-06-05T11:40:36.244Z,992.14
2023-06-05T11:41:38.067Z,992.12
2023-06-05T11:42:39.717Z,992.07
2023-06-05T11:43:41.434Z,992.06
2023-06-05T11:44:43.241Z,992
2023-06-05T11:45:45.068Z,992.03
2023-06-05T11:46:46.838Z,992.1
2023-06-05T11:47:48.472Z,992.03
2023-06-05T11:48:50.123Z,992.04
2023-06-05T11:49:51.817Z,992.04
2023-06-05T11:50:53.622Z,992.08
2023-06-05T11:51:55.412Z,992.08
2023-06-05T11:52:57.031Z,992.08
2023-06-05T11:53:58.773Z,992.07
2023-06-05T11:55:00.506Z,992.06
2023-06-05T11:56:02.253Z,992.06
2023-06-05T11:57:04.001Z,992
2023-06-05T11:58:05.746Z,992.02
2023-06-05T11:59:07.436Z,992.06
2023-06-05T12:00:09.197Z,992
2023-06-05T12:01:10.926Z,992.03
2023-06-05T12:02:12.688Z,992
2023-06-05T12:03:14.481Z,992
2023-06-05T12:04:17.602Z,992.1
2023-06-05T12:05:17.853Z,992.02
2023-06-05T12:06:19.639Z,992.04
2023-06-05T12:07:21.324Z,991.99
2023-06-05T12:08:23.047Z,992.02
2023-06-05T12:09:24.792Z,992.01
2023-06-05T12:10:26.537Z,992.01
2023-06-05T12:11:28.275Z,992
2023-06-05T12:12:29.985Z,992.02
2023-06-05T12:13:31.734Z,991.96
2023-06-05T12:14:33.757Z,992.01
2023-06-05T12:15:35.376Z,991.96
2023-06-05T12:16:37.222Z,991.99
2023-06-05T12:17:38.810Z,991.96
2023-06-05T12:18:40.403Z,991.94
2023-06-05T12:19:42.132Z,991.93
2023-06-05T12:20:43.866Z,991.94
2023-06-05T12:21:45.608Z,991.94
2023-06-05T12:22:47.315Z,991.93
2023-06-05T12:23:49.090Z,991.89
2023-06-05T12:24:50.848Z,991.91
2023-06-05T12:25:52.520Z,991.89
2023-06-05T12:26:54.275Z,991.87
2023-06-05T12:27:55.993Z,991.91
2023-06-05T12:28:57.733Z,991.91
2023-06-05T12:29:59.614Z,991.91
2023-06-05T12:31:01.209Z,991.89
2023-06-05T12:32:02.984Z,991.87
2023-06-05T12:33:04.756Z,991.9
2023-06-05T12:34:06.614Z,991.85
2023-06-05T12:35:09.607Z,991.88
2023-06-05T12:36:10.185Z,991.88
2023-06-05T12:37:12.257Z,991.86
2023-06-05T12:38:13.453Z,991.86
2023-06-05T12:39:15.063Z,991.84
2023-06-05T12:40:28.275Z,991.82
2023-06-05T12:41:18.653Z,991.82
2023-06-05T12:42:20.272Z,991.81
2023-06-05T12:43:22.086Z,991.83
2023-06-05T12:44:23.746Z,991.77
2023-06-05T12:45:25.847Z,991.74
2023-06-05T12:46:27.298Z,991.72
2023-06-05T12:47:33.212Z,991.75
2023-06-05T12:48:35.819Z,991.76
2023-06-05T12:49:38.428Z,991.76
2023-06-05T12:50:39.578Z,991.73
2023-06-05T12:51:41.072Z,991.73
2023-06-05T12:52:42.906Z,991.69
2023-06-05T12:53:44.510Z,991.66
2023-06-05T12:54:46.362Z,991.63
2023-06-05T12:55:47.964Z,991.65
2023-06-05T12:56:49.695Z,991.63
2023-06-05T12:57:54.106Z,991.65
2023-06-05T12:58:58.448Z,991.65
2023-06-05T13:00:00.045Z,991.62
2023-06-05T13:01:01.767Z,991.62
2023-06-05T13:02:03.728Z,991.65
2023-06-05T13:03:05.544Z,991.63
2023-06-05T13:04:07.113Z,991.64
2023-06-05T13:05:08.700Z,991.66
2023-06-05T13:06:10.733Z,991.58
2023-06-05T13:07:12.178Z,991.59
2023-06-05T13:08:13.919Z,991.59
2023-06-05T13:09:15.635Z,991.6
2023-06-05T13:10:17.369Z,991.59
2023-06-05T13:11:19.096Z,991.57
2023-06-05T13:12:20.838Z,991.53